Lake Providence, Louisiana
Current Conditions -  °F | °C
As of 7:24 AM on Sunday 23 Nov 2014 (Local Time) from KTVR Reporting Station
Light Rain Light Rain  
Wind Chill: 62°   Ceiling: 1000
Heat Index: 62°   Visibility: 8mi
Dew Point: 60°   Wind: 15mph
Humidity: 93%   Direction: 120°ESE
Pressure: 29.63"   Gusts: NA
Location:  32.8°N, 91.18°W
Report Text: KTVR 231324Z AUTO 12013KT 8SM -RA BKN010 BKN031 OVC095 17/16 A2963 RMK AO2 PRESFR P0007 T01670156
Loading
Personal Weather Stations






























Interactive Weather Map New forecast layout! Learn more

10-Day Weather Forecast

Advertisements
Track Severe Weather on mobile